sensor_id;sensor_type;location;lat;lon;timestamp;P1;durP1;ratioP1;P2;durP2;ratioP2
57635;SDS011;43465;50.728;4.160;2022-10-20T00:01:01;15.00;;;12.40;;
57635;SDS011;43465;50.728;4.160;2022-10-20T00:03:28;17.98;;;12.02;;
57635;SDS011;43465;50.728;4.160;2022-10-20T00:05:54;16.85;;;12.48;;
57635;SDS011;43465;50.728;4.160;2022-10-20T00:08:29;14.65;;;12.38;;
57635;SDS011;43465;50.728;4.160;2022-10-20T00:10:55;15.32;;;11.63;;
57635;SDS011;43465;50.728;4.160;2022-10-20T00:13:21;14.63;;;11.63;;
57635;SDS011;43465;50.728;4.160;2022-10-20T00:15:48;18.83;;;12.35;;
57635;SDS011;43465;50.728;4.160;2022-10-20T00:18:15;16.15;;;12.45;;
57635;SDS011;43465;50.728;4.160;2022-10-20T00:20:41;17.02;;;12.15;;
57635;SDS011;43465;50.728;4.160;2022-10-20T00:23:07;13.55;;;11.43;;
57635;SDS011;43465;50.728;4.160;2022-10-20T00:25:32;14.30;;;11.65;;
57635;SDS011;43465;50.728;4.160;2022-10-20T00:27:58;16.52;;;12.57;;
57635;SDS011;43465;50.728;4.160;2022-10-20T00:30:23;14.77;;;12.70;;
57635;SDS011;43465;50.728;4.160;2022-10-20T00:32:49;16.55;;;12.57;;
57635;SDS011;43465;50.728;4.160;2022-10-20T00:35:15;15.45;;;12.02;;
57635;SDS011;43465;50.728;4.160;2022-10-20T00:37:40;20.48;;;13.07;;
57635;SDS011;43465;50.728;4.160;2022-10-20T00:40:06;14.40;;;11.93;;
57635;SDS011;43465;50.728;4.160;2022-10-20T00:42:32;14.07;;;11.85;;
57635;SDS011;43465;50.728;4.160;2022-10-20T00:44:58;17.42;;;12.85;;
57635;SDS011;43465;50.728;4.160;2022-10-20T00:47:38;15.57;;;12.02;;
57635;SDS011;43465;50.728;4.160;2022-10-20T00:50:10;18.65;;;13.02;;
57635;SDS011;43465;50.728;4.160;2022-10-20T00:52:41;20.27;;;13.38;;
57635;SDS011;43465;50.728;4.160;2022-10-20T00:55:09;14.25;;;12.32;;
57635;SDS011;43465;50.728;4.160;2022-10-20T00:57:39;19.00;;;12.77;;
57635;SDS011;43465;50.728;4.160;2022-10-20T01:00:09;15.70;;;12.15;;
57635;SDS011;43465;50.728;4.160;2022-10-20T01:02:35;18.35;;;12.40;;
57635;SDS011;43465;50.728;4.160;2022-10-20T01:05:01;18.13;;;12.48;;
57635;SDS011;43465;50.728;4.160;2022-10-20T01:07:27;18.23;;;12.98;;
57635;SDS011;43465;50.728;4.160;2022-10-20T01:09:52;14.18;;;12.52;;
57635;SDS011;43465;50.728;4.160;2022-10-20T01:15:04;20.58;;;12.85;;
57635;SDS011;43465;50.728;4.160;2022-10-20T01:28:26;19.05;;;11.85;;
57635;SDS011;43465;50.728;4.160;2022-10-20T01:31:02;17.98;;;11.73;;
57635;SDS011;43465;50.728;4.160;2022-10-20T01:42:06;17.00;;;12.20;;
57635;SDS011;43465;50.728;4.160;2022-10-20T01:44:38;14.70;;;11.98;;
57635;SDS011;43465;50.728;4.160;2022-10-20T01:47:06;14.20;;;11.57;;
57635;SDS011;43465;50.728;4.160;2022-10-20T01:49:34;14.93;;;12.07;;
57635;SDS011;43465;50.728;4.160;2022-10-20T01:52:00;12.43;;;11.13;;
57635;SDS011;43465;50.728;4.160;2022-10-20T01:54:27;13.45;;;11.38;;
57635;SDS011;43465;50.728;4.160;2022-10-20T02:02:24;13.97;;;11.60;;
57635;SDS011;43465;50.728;4.160;2022-10-20T02:08:07;16.85;;;11.27;;
57635;SDS011;43465;50.728;4.160;2022-10-20T02:10:45;15.85;;;11.35;;
57635;SDS011;43465;50.728;4.160;2022-10-20T02:13:12;14.38;;;11.98;;
57635;SDS011;43465;50.728;4.160;2022-10-20T02:15:40;17.77;;;11.48;;
57635;SDS011;43465;50.728;4.160;2022-10-20T02:18:11;14.07;;;11.85;;
57635;SDS011;43465;50.728;4.160;2022-10-20T02:20:40;14.20;;;10.73;;
57635;SDS011;43465;50.728;4.160;2022-10-20T02:23:07;14.20;;;10.88;;
57635;SDS011;43465;50.728;4.160;2022-10-20T02:25:33;19.58;;;12.10;;
57635;SDS011;43465;50.728;4.160;2022-10-20T02:28:02;13.18;;;11.40;;
57635;SDS011;43465;50.728;4.160;2022-10-20T02:30:32;13.63;;;11.48;;
57635;SDS011;43465;50.728;4.160;2022-10-20T02:32:59;15.70;;;12.15;;
57635;SDS011;43465;50.728;4.160;2022-10-20T02:35:27;13.13;;;11.32;;
57635;SDS011;43465;50.728;4.160;2022-10-20T02:37:56;17.83;;;11.05;;
57635;SDS011;43465;50.728;4.160;2022-10-20T02:40:21;14.50;;;11.15;;
57635;SDS011;43465;50.728;4.160;2022-10-20T02:42:47;14.23;;;11.13;;
57635;SDS011;43465;50.728;4.160;2022-10-20T02:45:13;15.15;;;10.55;;
57635;SDS011;43465;50.728;4.160;2022-10-20T02:47:39;14.18;;;10.52;;
57635;SDS011;43465;50.728;4.160;2022-10-20T02:50:05;14.15;;;10.48;;
57635;SDS011;43465;50.728;4.160;2022-10-20T02:52:32;11.77;;;10.20;;
57635;SDS011;43465;50.728;4.160;2022-10-20T02:54:58;15.63;;;10.98;;
57635;SDS011;43465;50.728;4.160;2022-10-20T02:57:23;14.40;;;10.63;;
57635;SDS011;43465;50.728;4.160;2022-10-20T02:59:49;15.10;;;10.85;;
57635;SDS011;43465;50.728;4.160;2022-10-20T03:02:15;13.20;;;10.20;;
57635;SDS011;43465;50.728;4.160;2022-10-20T03:04:40;12.25;;;10.55;;
57635;SDS011;43465;50.728;4.160;2022-10-20T03:07:06;16.42;;;11.18;;
57635;SDS011;43465;50.728;4.160;2022-10-20T03:09:31;15.43;;;10.35;;
57635;SDS011;43465;50.728;4.160;2022-10-20T03:11:57;13.15;;;10.35;;
57635;SDS011;43465;50.728;4.160;2022-10-20T03:14:23;14.93;;;10.52;;
57635;SDS011;43465;50.728;4.160;2022-10-20T03:16:48;14.57;;;11.07;;
57635;SDS011;43465;50.728;4.160;2022-10-20T03:19:14;14.25;;;10.45;;
57635;SDS011;43465;50.728;4.160;2022-10-20T03:21:40;14.38;;;11.38;;
57635;SDS011;43465;50.728;4.160;2022-10-20T03:24:05;11.32;;;10.02;;
57635;SDS011;43465;50.728;4.160;2022-10-20T03:26:31;12.15;;;10.38;;
57635;SDS011;43465;50.728;4.160;2022-10-20T03:28:57;13.57;;;10.27;;
57635;SDS011;43465;50.728;4.160;2022-10-20T03:31:22;13.75;;;10.45;;
57635;SDS011;43465;50.728;4.160;2022-10-20T03:33:48;13.60;;;10.75;;
57635;SDS011;43465;50.728;4.160;2022-10-20T03:36:14;11.00;;;9.15;;
57635;SDS011;43465;50.728;4.160;2022-10-20T03:38:40;12.80;;;10.20;;
57635;SDS011;43465;50.728;4.160;2022-10-20T03:41:09;12.98;;;9.70;;
57635;SDS011;43465;50.728;4.160;2022-10-20T03:43:35;11.23;;;9.98;;
57635;SDS011;43465;50.728;4.160;2022-10-20T03:46:06;12.50;;;9.68;;
57635;SDS011;43465;50.728;4.160;2022-10-20T03:48:34;11.65;;;9.55;;
57635;SDS011;43465;50.728;4.160;2022-10-20T03:51:00;12.07;;;9.95;;
57635;SDS011;43465;50.728;4.160;2022-10-20T03:53:27;12.52;;;10.30;;
57635;SDS011;43465;50.728;4.160;2022-10-20T03:55:53;15.00;;;10.27;;
57635;SDS011;43465;50.728;4.160;2022-10-20T03:58:19;14.88;;;10.02;;
57635;SDS011;43465;50.728;4.160;2022-10-20T04:00:45;12.63;;;10.60;;
57635;SDS011;43465;50.728;4.160;2022-10-20T04:03:11;14.20;;;10.95;;
57635;SDS011;43465;50.728;4.160;2022-10-20T04:05:38;11.85;;;10.57;;
57635;SDS011;43465;50.728;4.160;2022-10-20T04:08:04;12.18;;;10.98;;
57635;SDS011;43465;50.728;4.160;2022-10-20T04:10:30;16.85;;;11.65;;
57635;SDS011;43465;50.728;4.160;2022-10-20T04:12:59;13.13;;;10.43;;
57635;SDS011;43465;50.728;4.160;2022-10-20T04:15:26;16.27;;;11.63;;
57635;SDS011;43465;50.728;4.160;2022-10-20T04:17:51;14.45;;;10.77;;
57635;SDS011;43465;50.728;4.160;2022-10-20T04:20:17;15.70;;;11.45;;
57635;SDS011;43465;50.728;4.160;2022-10-20T04:22:43;13.38;;;10.32;;
57635;SDS011;43465;50.728;4.160;2022-10-20T04:25:09;14.45;;;10.60;;
57635;SDS011;43465;50.728;4.160;2022-10-20T04:27:38;17.08;;;11.30;;
57635;SDS011;43465;50.728;4.160;2022-10-20T04:30:05;12.88;;;10.25;;
57635;SDS011;43465;50.728;4.160;2022-10-20T04:32:32;14.15;;;11.20;;
57635;SDS011;43465;50.728;4.160;2022-10-20T04:34:57;11.27;;;10.15;;
57635;SDS011;43465;50.728;4.160;2022-10-20T04:37:23;14.45;;;10.45;;
57635;SDS011;43465;50.728;4.160;2022-10-20T04:39:49;13.80;;;10.23;;
57635;SDS011;43465;50.728;4.160;2022-10-20T04:42:15;14.32;;;11.13;;
57635;SDS011;43465;50.728;4.160;2022-10-20T04:44:41;14.40;;;10.80;;
57635;SDS011;43465;50.728;4.160;2022-10-20T04:47:07;15.82;;;11.20;;
57635;SDS011;43465;50.728;4.160;2022-10-20T04:49:33;11.68;;;10.07;;
57635;SDS011;43465;50.728;4.160;2022-10-20T04:51:58;10.70;;;9.60;;
57635;SDS011;43465;50.728;4.160;2022-10-20T04:54:24;13.50;;;10.00;;
57635;SDS011;43465;50.728;4.160;2022-10-20T04:56:50;13.40;;;9.65;;
57635;SDS011;43465;50.728;4.160;2022-10-20T04:59:16;11.82;;;10.25;;
57635;SDS011;43465;50.728;4.160;2022-10-20T05:01:41;12.50;;;10.32;;
57635;SDS011;43465;50.728;4.160;2022-10-20T05:04:08;14.02;;;10.32;;
57635;SDS011;43465;50.728;4.160;2022-10-20T05:06:34;15.27;;;10.55;;
57635;SDS011;43465;50.728;4.160;2022-10-20T05:09:00;15.27;;;10.10;;
57635;SDS011;43465;50.728;4.160;2022-10-20T05:11:29;16.90;;;9.90;;
57635;SDS011;43465;50.728;4.160;2022-10-20T05:13:57;13.48;;;10.27;;
57635;SDS011;43465;50.728;4.160;2022-10-20T05:16:23;12.40;;;10.43;;
57635;SDS011;43465;50.728;4.160;2022-10-20T05:18:49;13.18;;;10.88;;
57635;SDS011;43465;50.728;4.160;2022-10-20T05:21:19;13.93;;;10.90;;
57635;SDS011;43465;50.728;4.160;2022-10-20T05:23:46;13.40;;;10.30;;
57635;SDS011;43465;50.728;4.160;2022-10-20T05:26:13;14.35;;;10.18;;
57635;SDS011;43465;50.728;4.160;2022-10-20T05:28:45;13.98;;;10.05;;
57635;SDS011;43465;50.728;4.160;2022-10-20T05:31:14;16.40;;;10.65;;
57635;SDS011;43465;50.728;4.160;2022-10-20T05:33:44;11.57;;;9.43;;
57635;SDS011;43465;50.728;4.160;2022-10-20T05:36:12;14.10;;;9.60;;
57635;SDS011;43465;50.728;4.160;2022-10-20T05:38:40;15.65;;;10.18;;
57635;SDS011;43465;50.728;4.160;2022-10-20T05:41:10;16.85;;;9.82;;
57635;SDS011;43465;50.728;4.160;2022-10-20T05:43:40;14.43;;;10.55;;
57635;SDS011;43465;50.728;4.160;2022-10-20T05:46:06;13.65;;;10.65;;
57635;SDS011;43465;50.728;4.160;2022-10-20T05:48:33;15.02;;;10.35;;
57635;SDS011;43465;50.728;4.160;2022-10-20T05:51:12;13.73;;;10.13;;
57635;SDS011;43465;50.728;4.160;2022-10-20T05:53:40;14.70;;;10.23;;
57635;SDS011;43465;50.728;4.160;2022-10-20T05:56:08;15.45;;;10.93;;
57635;SDS011;43465;50.728;4.160;2022-10-20T05:58:36;13.57;;;10.48;;
57635;SDS011;43465;50.728;4.160;2022-10-20T06:01:06;15.02;;;10.27;;
57635;SDS011;43465;50.728;4.160;2022-10-20T06:03:40;14.27;;;11.07;;
57635;SDS011;43465;50.728;4.160;2022-10-20T06:06:06;18.98;;;11.35;;
57635;SDS011;43465;50.728;4.160;2022-10-20T06:08:32;17.42;;;10.55;;
57635;SDS011;43465;50.728;4.160;2022-10-20T06:11:05;15.25;;;10.98;;
57635;SDS011;43465;50.728;4.160;2022-10-20T06:13:32;19.30;;;11.55;;
57635;SDS011;43465;50.728;4.160;2022-10-20T06:18:35;16.35;;;11.07;;
57635;SDS011;43465;50.728;4.160;2022-10-20T06:21:06;17.30;;;10.95;;
57635;SDS011;43465;50.728;4.160;2022-10-20T06:23:35;14.02;;;11.70;;
57635;SDS011;43465;50.728;4.160;2022-10-20T06:26:01;16.77;;;11.57;;
57635;SDS011;43465;50.728;4.160;2022-10-20T06:28:29;19.58;;;11.75;;
57635;SDS011;43465;50.728;4.160;2022-10-20T06:30:56;17.63;;;11.70;;
57635;SDS011;43465;50.728;4.160;2022-10-20T06:33:21;17.90;;;11.38;;
57635;SDS011;43465;50.728;4.160;2022-10-20T06:35:47;16.42;;;11.07;;
57635;SDS011;43465;50.728;4.160;2022-10-20T06:38:12;17.23;;;11.25;;
57635;SDS011;43465;50.728;4.160;2022-10-20T06:40:38;13.93;;;10.30;;
57635;SDS011;43465;50.728;4.160;2022-10-20T06:43:04;16.75;;;10.95;;
57635;SDS011;43465;50.728;4.160;2022-10-20T06:45:29;14.32;;;10.82;;
57635;SDS011;43465;50.728;4.160;2022-10-20T06:47:55;19.13;;;11.43;;
57635;SDS011;43465;50.728;4.160;2022-10-20T06:50:21;16.63;;;10.68;;
57635;SDS011;43465;50.728;4.160;2022-10-20T06:52:46;18.77;;;11.15;;
57635;SDS011;43465;50.728;4.160;2022-10-20T06:55:12;18.67;;;11.00;;
57635;SDS011;43465;50.728;4.160;2022-10-20T06:57:38;16.58;;;11.23;;
57635;SDS011;43465;50.728;4.160;2022-10-20T07:00:03;16.27;;;11.43;;
57635;SDS011;43465;50.728;4.160;2022-10-20T07:02:30;14.95;;;10.18;;
57635;SDS011;43465;50.728;4.160;2022-10-20T07:04:55;15.90;;;10.80;;
57635;SDS011;43465;50.728;4.160;2022-10-20T07:07:21;18.90;;;11.73;;
57635;SDS011;43465;50.728;4.160;2022-10-20T07:09:46;17.92;;;10.27;;
57635;SDS011;43465;50.728;4.160;2022-10-20T07:12:12;14.75;;;10.90;;
57635;SDS011;43465;50.728;4.160;2022-10-20T07:14:38;18.33;;;10.93;;
57635;SDS011;43465;50.728;4.160;2022-10-20T07:17:03;18.52;;;10.98;;
57635;SDS011;43465;50.728;4.160;2022-10-20T07:19:29;19.73;;;11.00;;
57635;SDS011;43465;50.728;4.160;2022-10-20T07:21:55;17.00;;;10.88;;
57635;SDS011;43465;50.728;4.160;2022-10-20T07:24:21;13.60;;;10.85;;
57635;SDS011;43465;50.728;4.160;2022-10-20T07:26:47;17.92;;;11.57;;
57635;SDS011;43465;50.728;4.160;2022-10-20T07:29:13;18.65;;;11.43;;
57635;SDS011;43465;50.728;4.160;2022-10-20T07:31:40;24.33;;;11.50;;
57635;SDS011;43465;50.728;4.160;2022-10-20T07:34:08;20.02;;;12.43;;
57635;SDS011;43465;50.728;4.160;2022-10-20T07:36:36;18.70;;;12.07;;
57635;SDS011;43465;50.728;4.160;2022-10-20T07:39:04;17.40;;;12.00;;
57635;SDS011;43465;50.728;4.160;2022-10-20T07:41:31;19.23;;;12.70;;
57635;SDS011;43465;50.728;4.160;2022-10-20T07:43:57;24.05;;;11.98;;
57635;SDS011;43465;50.728;4.160;2022-10-20T07:46:23;18.40;;;11.60;;
57635;SDS011;43465;50.728;4.160;2022-10-20T07:48:49;20.65;;;11.93;;
57635;SDS011;43465;50.728;4.160;2022-10-20T07:53:51;12.30;;;10.95;;
57635;SDS011;43465;50.728;4.160;2022-10-20T07:56:18;21.00;;;11.68;;
57635;SDS011;43465;50.728;4.160;2022-10-20T07:58:44;20.77;;;12.07;;
57635;SDS011;43465;50.728;4.160;2022-10-20T08:01:11;22.88;;;12.02;;
57635;SDS011;43465;50.728;4.160;2022-10-20T08:03:36;22.17;;;12.20;;
57635;SDS011;43465;50.728;4.160;2022-10-20T08:06:02;19.75;;;11.93;;
57635;SDS011;43465;50.728;4.160;2022-10-20T08:08:29;19.50;;;12.25;;
57635;SDS011;43465;50.728;4.160;2022-10-20T08:10:54;18.95;;;12.55;;
57635;SDS011;43465;50.728;4.160;2022-10-20T08:13:22;21.75;;;12.68;;
57635;SDS011;43465;50.728;4.160;2022-10-20T08:15:48;25.67;;;12.70;;
57635;SDS011;43465;50.728;4.160;2022-10-20T08:18:14;22.15;;;13.13;;
57635;SDS011;43465;50.728;4.160;2022-10-20T08:20:39;21.50;;;12.07;;
57635;SDS011;43465;50.728;4.160;2022-10-20T08:23:05;20.77;;;13.18;;
57635;SDS011;43465;50.728;4.160;2022-10-20T08:25:31;22.50;;;12.65;;
57635;SDS011;43465;50.728;4.160;2022-10-20T08:27:57;22.17;;;12.63;;
57635;SDS011;43465;50.728;4.160;2022-10-20T08:30:22;18.75;;;12.50;;
57635;SDS011;43465;50.728;4.160;2022-10-20T08:32:51;25.50;;;13.30;;
57635;SDS011;43465;50.728;4.160;2022-10-20T08:35:18;20.38;;;12.25;;
57635;SDS011;43465;50.728;4.160;2022-10-20T08:37:47;19.17;;;13.32;;
57635;SDS011;43465;50.728;4.160;2022-10-20T08:40:17;19.17;;;11.70;;
57635;SDS011;43465;50.728;4.160;2022-10-20T08:42:45;17.40;;;11.95;;
57635;SDS011;43465;50.728;4.160;2022-10-20T08:45:16;17.75;;;11.75;;
57635;SDS011;43465;50.728;4.160;2022-10-20T08:47:47;18.77;;;11.43;;
57635;SDS011;43465;50.728;4.160;2022-10-20T08:50:16;15.52;;;11.75;;
57635;SDS011;43465;50.728;4.160;2022-10-20T08:52:43;19.35;;;11.25;;
57635;SDS011;43465;50.728;4.160;2022-10-20T08:55:18;17.95;;;11.35;;
57635;SDS011;43465;50.728;4.160;2022-10-20T08:58:03;19.48;;;11.98;;
57635;SDS011;43465;50.728;4.160;2022-10-20T09:00:44;23.60;;;11.50;;
57635;SDS011;43465;50.728;4.160;2022-10-20T09:03:13;24.25;;;13.20;;
57635;SDS011;43465;50.728;4.160;2022-10-20T09:05:42;20.73;;;12.73;;
57635;SDS011;43465;50.728;4.160;2022-10-20T09:08:09;21.90;;;13.43;;
57635;SDS011;43465;50.728;4.160;2022-10-20T09:10:36;21.27;;;12.70;;
57635;SDS011;43465;50.728;4.160;2022-10-20T09:13:07;21.02;;;13.88;;
57635;SDS011;43465;50.728;4.160;2022-10-20T09:15:41;20.63;;;14.20;;
57635;SDS011;43465;50.728;4.160;2022-10-20T09:18:08;20.80;;;14.10;;
57635;SDS011;43465;50.728;4.160;2022-10-20T09:20:51;17.73;;;12.68;;
57635;SDS011;43465;50.728;4.160;2022-10-20T09:23:24;20.27;;;12.15;;
57635;SDS011;43465;50.728;4.160;2022-10-20T09:26:02;20.63;;;12.57;;
57635;SDS011;43465;50.728;4.160;2022-10-20T09:28:28;18.15;;;12.13;;
57635;SDS011;43465;50.728;4.160;2022-10-20T09:30:54;19.88;;;12.52;;
57635;SDS011;43465;50.728;4.160;2022-10-20T09:33:21;22.42;;;12.55;;
57635;SDS011;43465;50.728;4.160;2022-10-20T09:36:04;19.80;;;12.07;;
57635;SDS011;43465;50.728;4.160;2022-10-20T09:38:40;23.08;;;12.73;;
57635;SDS011;43465;50.728;4.160;2022-10-20T09:41:14;19.02;;;11.90;;
57635;SDS011;43465;50.728;4.160;2022-10-20T09:43:48;18.50;;;12.73;;
57635;SDS011;43465;50.728;4.160;2022-10-20T09:46:22;22.27;;;13.32;;
57635;SDS011;43465;50.728;4.160;2022-10-20T09:49:01;20.27;;;13.48;;
57635;SDS011;43465;50.728;4.160;2022-10-20T09:51:27;19.90;;;12.52;;
57635;SDS011;43465;50.728;4.160;2022-10-20T09:53:59;19.25;;;12.45;;
57635;SDS011;43465;50.728;4.160;2022-10-20T09:59:06;19.33;;;12.32;;
57635;SDS011;43465;50.728;4.160;2022-10-20T10:04:32;18.38;;;13.13;;
57635;SDS011;43465;50.728;4.160;2022-10-20T10:07:00;22.13;;;13.40;;
57635;SDS011;43465;50.728;4.160;2022-10-20T10:09:34;21.75;;;13.25;;
57635;SDS011;43465;50.728;4.160;2022-10-20T10:14:29;21.30;;;13.88;;
57635;SDS011;43465;50.728;4.160;2022-10-20T10:16:59;23.55;;;13.50;;
57635;SDS011;43465;50.728;4.160;2022-10-20T10:19:26;16.30;;;12.65;;
57635;SDS011;43465;50.728;4.160;2022-10-20T10:21:58;18.70;;;13.00;;
57635;SDS011;43465;50.728;4.160;2022-10-20T10:27:17;17.13;;;12.23;;
57635;SDS011;43465;50.728;4.160;2022-10-20T10:29:49;20.98;;;11.57;;
57635;SDS011;43465;50.728;4.160;2022-10-20T10:32:22;15.90;;;11.15;;
57635;SDS011;43465;50.728;4.160;2022-10-20T10:35:18;17.75;;;10.25;;
57635;SDS011;43465;50.728;4.160;2022-10-20T10:37:53;17.52;;;10.35;;
57635;SDS011;43465;50.728;4.160;2022-10-20T10:40:20;16.63;;;9.93;;
57635;SDS011;43465;50.728;4.160;2022-10-20T10:43:02;14.50;;;9.43;;
57635;SDS011;43465;50.728;4.160;2022-10-20T10:48:25;18.98;;;9.07;;
57635;SDS011;43465;50.728;4.160;2022-10-20T10:59:53;13.95;;;7.47;;
57635;SDS011;43465;50.728;4.160;2022-10-20T11:05:38;12.98;;;6.38;;
57635;SDS011;43465;50.728;4.160;2022-10-20T11:11:33;13.48;;;6.32;;
57635;SDS011;43465;50.728;4.160;2022-10-20T11:27:49;11.57;;;6.15;;
57635;SDS011;43465;50.728;4.160;2022-10-20T11:30:16;14.38;;;5.82;;
57635;SDS011;43465;50.728;4.160;2022-10-20T11:35:53;12.77;;;5.47;;
57635;SDS011;43465;50.728;4.160;2022-10-20T11:46:39;11.32;;;6.07;;
57635;SDS011;43465;50.728;4.160;2022-10-20T11:49:27;10.38;;;4.93;;
57635;SDS011;43465;50.728;4.160;2022-10-20T11:52:11;9.43;;;4.55;;
57635;SDS011;43465;50.728;4.160;2022-10-20T12:00:17;9.43;;;5.00;;
57635;SDS011;43465;50.728;4.160;2022-10-20T12:19:22;8.40;;;4.93;;
57635;SDS011;43465;50.728;4.160;2022-10-20T12:24:30;8.68;;;4.00;;
57635;SDS011;43465;50.728;4.160;2022-10-20T12:39:53;8.65;;;4.80;;
57635;SDS011;43465;50.728;4.160;2022-10-20T12:42:30;6.47;;;3.67;;
57635;SDS011;43465;50.728;4.160;2022-10-20T12:45:05;7.35;;;3.83;;
57635;SDS011;43465;50.728;4.160;2022-10-20T12:47:48;8.52;;;3.90;;
57635;SDS011;43465;50.728;4.160;2022-10-20T12:55:44;8.77;;;3.55;;
57635;SDS011;43465;50.728;4.160;2022-10-20T13:05:55;8.05;;;3.40;;
57635;SDS011;43465;50.728;4.160;2022-10-20T13:08:23;7.82;;;3.20;;
57635;SDS011;43465;50.728;4.160;2022-10-20T13:10:51;5.47;;;3.22;;
57635;SDS011;43465;50.728;4.160;2022-10-20T13:15:46;5.13;;;2.97;;
57635;SDS011;43465;50.728;4.160;2022-10-20T13:18:16;7.57;;;3.10;;
57635;SDS011;43465;50.728;4.160;2022-10-20T13:24:01;6.78;;;2.95;;
57635;SDS011;43465;50.728;4.160;2022-10-20T13:26:52;4.25;;;2.72;;
57635;SDS011;43465;50.728;4.160;2022-10-20T13:29:32;6.53;;;2.80;;
57635;SDS011;43465;50.728;4.160;2022-10-20T13:32:10;4.95;;;2.53;;
57635;SDS011;43465;50.728;4.160;2022-10-20T13:34:42;8.07;;;3.03;;
57635;SDS011;43465;50.728;4.160;2022-10-20T13:42:27;5.35;;;2.80;;
57635;SDS011;43465;50.728;4.160;2022-10-20T13:50:33;3.40;;;2.42;;
57635;SDS011;43465;50.728;4.160;2022-10-20T13:53:12;5.90;;;2.58;;
57635;SDS011;43465;50.728;4.160;2022-10-20T13:58:40;5.13;;;3.20;;
57635;SDS011;43465;50.728;4.160;2022-10-20T14:01:16;8.52;;;3.08;;
57635;SDS011;43465;50.728;4.160;2022-10-20T14:03:48;6.03;;;3.10;;
57635;SDS011;43465;50.728;4.160;2022-10-20T14:06:34;5.80;;;3.40;;
57635;SDS011;43465;50.728;4.160;2022-10-20T14:09:09;7.60;;;3.03;;
57635;SDS011;43465;50.728;4.160;2022-10-20T14:11:46;9.10;;;2.80;;
57635;SDS011;43465;50.728;4.160;2022-10-20T14:14:19;9.20;;;3.08;;
57635;SDS011;43465;50.728;4.160;2022-10-20T14:16:57;7.82;;;3.10;;
57635;SDS011;43465;50.728;4.160;2022-10-20T14:19:25;6.00;;;2.90;;
57635;SDS011;43465;50.728;4.160;2022-10-20T14:21:56;8.15;;;3.25;;
57635;SDS011;43465;50.728;4.160;2022-10-20T14:27:02;7.18;;;2.78;;
57635;SDS011;43465;50.728;4.160;2022-10-20T14:29:32;7.95;;;2.60;;
57635;SDS011;43465;50.728;4.160;2022-10-20T14:32:03;6.88;;;3.00;;
57635;SDS011;43465;50.728;4.160;2022-10-20T14:34:33;5.65;;;2.53;;
57635;SDS011;43465;50.728;4.160;2022-10-20T14:37:00;7.70;;;2.78;;
57635;SDS011;43465;50.728;4.160;2022-10-20T14:39:31;6.57;;;2.63;;
57635;SDS011;43465;50.728;4.160;2022-10-20T14:44:44;6.60;;;2.40;;
57635;SDS011;43465;50.728;4.160;2022-10-20T14:47:10;6.45;;;2.35;;
57635;SDS011;43465;50.728;4.160;2022-10-20T14:49:38;7.45;;;2.53;;
57635;SDS011;43465;50.728;4.160;2022-10-20T14:54:41;7.72;;;2.65;;
57635;SDS011;43465;50.728;4.160;2022-10-20T14:59:34;10.05;;;2.90;;
57635;SDS011;43465;50.728;4.160;2022-10-20T15:02:26;5.88;;;2.45;;
57635;SDS011;43465;50.728;4.160;2022-10-20T15:07:55;7.20;;;2.65;;
57635;SDS011;43465;50.728;4.160;2022-10-20T15:10:21;8.57;;;2.70;;
57635;SDS011;43465;50.728;4.160;2022-10-20T15:12:50;6.88;;;2.33;;
57635;SDS011;43465;50.728;4.160;2022-10-20T15:15:21;6.28;;;2.50;;
57635;SDS011;43465;50.728;4.160;2022-10-20T15:22:57;7.47;;;2.50;;
57635;SDS011;43465;50.728;4.160;2022-10-20T15:25:28;5.35;;;2.60;;
57635;SDS011;43465;50.728;4.160;2022-10-20T15:27:57;8.70;;;2.50;;
57635;SDS011;43465;50.728;4.160;2022-10-20T15:30:24;6.90;;;2.70;;
57635;SDS011;43465;50.728;4.160;2022-10-20T15:32:51;7.85;;;2.60;;
57635;SDS011;43465;50.728;4.160;2022-10-20T15:35:19;4.03;;;2.00;;
57635;SDS011;43465;50.728;4.160;2022-10-20T15:37:48;5.70;;;2.30;;
57635;SDS011;43465;50.728;4.160;2022-10-20T15:40:15;6.55;;;2.20;;
57635;SDS011;43465;50.728;4.160;2022-10-20T15:42:42;8.88;;;2.38;;
57635;SDS011;43465;50.728;4.160;2022-10-20T15:47:41;3.15;;;2.22;;
57635;SDS011;43465;50.728;4.160;2022-10-20T15:50:07;3.30;;;1.80;;
57635;SDS011;43465;50.728;4.160;2022-10-20T15:52:33;6.85;;;2.30;;
57635;SDS011;43465;50.728;4.160;2022-10-20T15:55:00;10.25;;;2.35;;
57635;SDS011;43465;50.728;4.160;2022-10-20T15:57:26;3.75;;;2.10;;
57635;SDS011;43465;50.728;4.160;2022-10-20T15:59:52;9.48;;;2.10;;
57635;SDS011;43465;50.728;4.160;2022-10-20T16:02:18;10.00;;;2.45;;
57635;SDS011;43465;50.728;4.160;2022-10-20T16:04:43;5.38;;;2.30;;
57635;SDS011;43465;50.728;4.160;2022-10-20T16:07:09;4.93;;;2.40;;
57635;SDS011;43465;50.728;4.160;2022-10-20T16:09:34;6.07;;;2.38;;
57635;SDS011;43465;50.728;4.160;2022-10-20T16:12:00;6.78;;;2.70;;
57635;SDS011;43465;50.728;4.160;2022-10-20T16:14:26;5.55;;;2.58;;
57635;SDS011;43465;50.728;4.160;2022-10-20T16:16:51;2.85;;;2.47;;
57635;SDS011;43465;50.728;4.160;2022-10-20T16:19:17;7.20;;;2.60;;
57635;SDS011;43465;50.728;4.160;2022-10-20T16:21:43;4.10;;;2.50;;
57635;SDS011;43465;50.728;4.160;2022-10-20T16:24:08;7.80;;;2.55;;
57635;SDS011;43465;50.728;4.160;2022-10-20T16:26:35;5.93;;;2.63;;
57635;SDS011;43465;50.728;4.160;2022-10-20T16:29:01;8.48;;;2.50;;
57635;SDS011;43465;50.728;4.160;2022-10-20T16:31:26;6.00;;;2.30;;
57635;SDS011;43465;50.728;4.160;2022-10-20T16:33:53;5.90;;;2.40;;
57635;SDS011;43465;50.728;4.160;2022-10-20T16:36:18;5.38;;;2.83;;
57635;SDS011;43465;50.728;4.160;2022-10-20T16:38:45;8.80;;;2.60;;
57635;SDS011;43465;50.728;4.160;2022-10-20T16:41:12;13.02;;;3.30;;
57635;SDS011;43465;50.728;4.160;2022-10-20T16:43:43;5.85;;;2.63;;
57635;SDS011;43465;50.728;4.160;2022-10-20T16:46:09;6.68;;;2.60;;
57635;SDS011;43465;50.728;4.160;2022-10-20T16:48:37;7.10;;;2.80;;
57635;SDS011;43465;50.728;4.160;2022-10-20T16:51:06;9.68;;;3.17;;
57635;SDS011;43465;50.728;4.160;2022-10-20T16:53:34;7.30;;;2.70;;
57635;SDS011;43465;50.728;4.160;2022-10-20T16:55:59;10.98;;;2.95;;
57635;SDS011;43465;50.728;4.160;2022-10-20T16:58:25;4.20;;;2.55;;
57635;SDS011;43465;50.728;4.160;2022-10-20T17:00:56;6.40;;;2.80;;
57635;SDS011;43465;50.728;4.160;2022-10-20T17:03:21;6.90;;;3.28;;
57635;SDS011;43465;50.728;4.160;2022-10-20T17:05:52;9.60;;;3.00;;
57635;SDS011;43465;50.728;4.160;2022-10-20T17:08:21;7.25;;;3.25;;
57635;SDS011;43465;50.728;4.160;2022-10-20T17:10:47;5.97;;;3.00;;
57635;SDS011;43465;50.728;4.160;2022-10-20T17:13:19;5.87;;;3.07;;
57635;SDS011;43465;50.728;4.160;2022-10-20T17:15:45;9.23;;;3.10;;
57635;SDS011;43465;50.728;4.160;2022-10-20T17:18:10;5.00;;;3.05;;
57635;SDS011;43465;50.728;4.160;2022-10-20T17:20:36;4.93;;;2.70;;
57635;SDS011;43465;50.728;4.160;2022-10-20T17:23:02;6.88;;;3.00;;
57635;SDS011;43465;50.728;4.160;2022-10-20T17:25:29;6.00;;;2.80;;
57635;SDS011;43465;50.728;4.160;2022-10-20T17:27:55;7.72;;;3.08;;
57635;SDS011;43465;50.728;4.160;2022-10-20T17:30:22;8.32;;;3.00;;
57635;SDS011;43465;50.728;4.160;2022-10-20T17:32:48;8.13;;;3.17;;
57635;SDS011;43465;50.728;4.160;2022-10-20T17:35:13;9.55;;;3.17;;
57635;SDS011;43465;50.728;4.160;2022-10-20T17:37:39;7.80;;;3.25;;
57635;SDS011;43465;50.728;4.160;2022-10-20T17:40:05;8.77;;;3.28;;